images/hfc/images/print_logo.png
Drucken
[Quelle: ADDS]
METAR
EDDW 262250Z 25006KT 9999 -RA FEW027 SCT035 02/01 Q1002 =
TAF
EDDW 261700Z 2618/2718 26008KT 9999 BKN025 PROB30 TEMPO 2618/2621 4500 SHRAGS BKN014CB BECMG 2620/2623 BKN007 BECMG 2707/2710 BKN025 PROB30 TEMPO 2709/2715 4000 SHRAGS BKN012CB BECMG 2712/2715 20006KT BECMG 2716/2718 BKN012 =
BCMT / ECET: 05:41 / 17:34 UTC (EDDW 2020-02-27)

printlogo=no